Time;durP1;ratioP1;P1;durP2;ratioP2;P2;SDS_P1;SDS_P2;PMS_P1;PMS_P2;Temp;Humidity;BMP_temperature;BMP_pressure;BME280_temperature;BME280_humidity;BME280_pressure;Samples;Min_cycle;Max_cycle;Signal;HPM_P1;HPM_P2
2020/12/07 00:00:47;;;;;;;8.77;8.17;;;2.50;99.90;;;;;;5011646;28;20504;-77
2020/12/07 00:03:14;;;;;;;8.47;7.97;;;2.50;99.90;;;;;;5011687;28;20453;-77
2020/12/07 00:05:40;;;;;;;6.33;5.93;;;2.50;99.90;;;;;;5011523;28;20491;-77
2020/12/07 00:08:07;;;;;;;6.03;5.53;;;2.60;99.90;;;;;;5011133;28;20470;-76
2020/12/07 00:10:34;;;;;;;4.50;3.97;;;2.60;99.90;;;;;;5011423;28;20462;-77
2020/12/07 00:13:02;;;;;;;4.57;4.20;;;2.60;99.90;;;;;;5023964;28;20451;-77
2020/12/07 00:15:28;;;;;;;4.47;4.10;;;2.60;99.90;;;;;;5011262;28;20449;-77
2020/12/07 00:17:55;;;;;;;5.60;5.20;;;2.60;99.90;;;;;;5011237;28;20479;-77
2020/12/07 00:20:21;;;;;;;6.47;6.03;;;2.60;99.90;;;;;;5011116;28;20501;-77
2020/12/07 00:22:47;;;;;;;6.07;5.67;;;2.60;99.90;;;;;;5011709;28;20501;-77
2020/12/07 00:25:15;;;;;;;3.90;3.50;;;2.60;99.90;;;;;;5011281;28;20541;-77
2020/12/07 00:27:41;;;;;;;3.03;2.83;;;2.60;99.90;;;;;;5012837;28;20800;-77
2020/12/07 00:30:07;;;;;;;3.60;3.37;;;2.60;99.90;;;;;;5012306;28;20448;-77
2020/12/07 00:32:34;;;;;;;10.00;9.40;;;2.60;99.90;;;;;;5011779;28;20493;-77
2020/12/07 00:35:01;;;;;;;10.13;9.53;;;2.60;99.90;;;;;;5012716;28;20799;-75
2020/12/07 00:37:27;;;;;;;6.83;6.43;;;2.60;99.90;;;;;;5011492;28;20466;-77
2020/12/07 00:39:53;;;;;;;5.23;4.93;;;2.60;99.90;;;;;;5012249;28;20507;-76
2020/12/07 00:42:21;;;;;;;4.43;4.13;;;2.70;99.90;;;;;;5011532;28;20451;-76
2020/12/07 00:44:47;;;;;;;9.60;9.10;;;2.60;99.90;;;;;;5012376;28;20465;-77
2020/12/07 00:47:16;;;;;;;6.27;5.87;;;2.60;99.90;;;;;;5011060;28;20468;-77
2020/12/07 00:49:43;;;;;;;3.70;3.40;;;2.70;99.90;;;;;;5010584;28;20462;-77
2020/12/07 00:52:09;;;;;;;3.97;3.70;;;2.70;99.90;;;;;;5011805;28;20458;-76
2020/12/07 00:54:36;;;;;;;10.83;10.10;;;2.60;99.90;;;;;;5017130;28;20449;-77
2020/12/07 00:57:04;;;;;;;7.27;6.77;;;2.70;99.90;;;;;;5017679;28;20537;-76
2020/12/07 00:59:34;;;;;;;5.60;5.27;;;2.70;99.90;;;;;;5017263;28;20459;-77
2020/12/07 01:02:03;;;;;;;6.10;5.70;;;2.70;99.90;;;;;;5017958;28;20916;-76
2020/12/07 01:04:29;;;;;;;4.57;4.27;;;2.70;99.90;;;;;;5018023;28;20472;-77
2020/12/07 01:06:59;;;;;;;4.27;3.97;;;2.70;99.90;;;;;;5018059;28;20473;-77
2020/12/07 01:09:26;;;;;;;4.30;4.00;;;2.70;99.90;;;;;;5017893;28;20475;-77
2020/12/07 01:11:55;;;;;;;5.73;5.43;;;2.80;99.90;;;;;;5020023;28;20426;-76
2020/12/07 01:14:23;;;;;;;4.90;4.60;;;2.80;99.90;;;;;;5018450;28;20993;-76
2020/12/07 01:16:52;;;;;;;3.83;3.20;;;2.80;99.90;;;;;;5005032;28;20545;-76
2020/12/07 01:19:21;;;;;;;5.77;5.43;;;2.80;99.90;;;;;;5018126;28;20443;-76
2020/12/07 01:21:48;;;;;;;6.07;5.67;;;2.80;99.90;;;;;;5019026;28;20437;-77
2020/12/07 01:24:15;;;;;;;5.00;4.70;;;2.80;99.90;;;;;;5018775;28;20467;-77
2020/12/07 01:26:42;;;;;;;5.10;4.80;;;2.80;99.90;;;;;;5018769;28;20506;-76
2020/12/07 01:29:08;;;;;;;5.80;5.40;;;2.80;99.90;;;;;;5018434;28;20478;-77
2020/12/07 01:31:35;;;;;;;6.50;6.00;;;2.80;99.90;;;;;;5018730;28;20506;-76
2020/12/07 01:34:05;;;;;;;11.47;10.80;;;2.80;99.90;;;;;;5020442;28;20441;-77
2020/12/07 01:36:35;;;;;;;4.13;3.73;;;2.80;99.90;;;;;;5018986;28;20570;-77
2020/12/07 01:39:01;;;;;;;5.00;4.70;;;2.80;99.90;;;;;;5018382;28;20457;-76
2020/12/07 01:41:28;;;;;;;3.53;3.33;;;2.80;99.90;;;;;;5019474;28;20832;-77
2020/12/07 01:43:54;;;;;;;3.50;3.30;;;2.80;99.90;;;;;;5019087;28;20818;-77
2020/12/07 01:46:23;;;;;;;6.73;6.33;;;2.80;99.90;;;;;;5019315;28;20514;-76
2020/12/07 01:48:51;;;;;;;8.43;7.93;;;2.90;99.90;;;;;;5018871;28;20474;-76
2020/12/07 01:51:19;;;;;;;11.80;11.10;;;2.90;99.90;;;;;;5019617;28;20446;-77
2020/12/07 01:53:46;;;;;;;12.23;11.50;;;2.90;99.90;;;;;;5020952;28;20438;-77
2020/12/07 01:56:19;;;;;;;10.10;9.50;;;2.90;99.90;;;;;;5019304;28;20824;-77
2020/12/07 01:58:46;;;;;;;8.97;8.40;;;2.90;99.90;;;;;;5018496;28;20476;-76
2020/12/07 02:01:12;;;;;;;4.10;3.90;;;2.90;99.90;;;;;;5019617;28;20824;-76
2020/12/07 02:03:39;;;;;;;3.90;3.60;;;2.90;99.90;;;;;;5018148;28;20450;-77
2020/12/07 02:06:06;;;;;;;3.97;3.77;;;2.90;99.90;;;;;;5015210;28;20483;-77
2020/12/07 02:08:33;;;;;;;4.90;4.60;;;2.90;99.90;;;;;;5016544;28;20458;-76
2020/12/07 02:11:08;;;;;;;3.90;3.60;;;2.90;99.90;;;;;;5016135;28;20502;-77
2020/12/07 02:13:38;;;;;;;3.20;3.00;;;2.90;99.90;;;;;;5015975;28;20982;-76
2020/12/07 02:16:04;;;;;;;3.40;3.20;;;2.90;99.90;;;;;;5032952;28;20476;-76
2020/12/07 02:18:37;;;;;;;3.10;3.00;;;3.00;99.90;;;;;;5022575;23;20502;-79
2020/12/07 02:21:04;;;;;;;4.40;4.10;;;3.00;99.90;;;;;;4993595;28;20484;-80
2020/12/07 02:23:51;;;;;;;5.33;5.03;;;3.00;99.90;;;;;;4993688;28;20888;-81
2020/12/07 02:26:20;;;;;;;4.20;3.90;;;3.00;99.90;;;;;;4993443;28;20512;-80
2020/12/07 02:28:50;;;;;;;3.80;3.50;;;3.00;99.90;;;;;;4977517;28;20982;-80
2020/12/07 02:31:16;;;;;;;3.30;3.03;;;3.00;99.90;;;;;;4974159;28;20472;-82
2020/12/07 02:33:42;;;;;;;3.20;3.00;;;3.00;99.90;;;;;;4974110;28;20448;-81
2020/12/07 02:36:11;;;;;;;3.40;3.20;;;3.00;99.90;;;;;;4974086;28;20449;-81
2020/12/07 02:38:45;;;;;;;3.23;3.07;;;3.10;99.90;;;;;;4973718;28;20470;-80
2020/12/07 02:41:12;;;;;;;3.40;3.20;;;3.10;99.90;;;;;;4974005;28;20449;-80
2020/12/07 02:43:39;;;;;;;9.50;9.00;;;3.10;99.90;;;;;;4974420;28;20484;-80
2020/12/07 02:46:07;;;;;;;12.50;11.80;;;3.10;99.90;;;;;;4973994;28;20495;-80
2020/12/07 02:48:35;;;;;;;4.50;4.30;;;3.10;99.90;;;;;;4973216;28;20462;-81
2020/12/07 02:51:06;;;;;;;18.57;17.13;;;3.10;99.90;;;;;;4973352;28;20450;-80
2020/12/07 02:53:33;;;;;;;4.40;4.03;;;3.10;99.90;;;;;;4972168;28;20969;-80
2020/12/07 02:56:00;;;;;;;5.97;5.57;;;3.10;99.90;;;;;;4973938;28;20940;-80
2020/12/07 02:58:26;;;;;;;4.50;4.20;;;3.10;99.90;;;;;;4973459;28;20469;-80
2020/12/07 03:00:56;;;;;;;3.40;3.20;;;3.10;99.90;;;;;;4973761;28;20453;-80
2020/12/07 03:03:23;;;;;;;3.20;3.00;;;3.10;99.90;;;;;;4973701;28;20499;-80
2020/12/07 03:05:49;;;;;;;3.80;3.50;;;3.10;99.90;;;;;;4973523;28;20527;-80
2020/12/07 03:08:19;;;;;;;3.50;3.30;;;3.20;99.90;;;;;;4972565;28;21160;-80
2020/12/07 03:10:47;;;;;;;3.63;3.33;;;3.20;99.90;;;;;;4973415;28;20496;-79
2020/12/07 03:13:14;;;;;;;3.53;3.33;;;3.20;99.90;;;;;;4973472;28;20612;-80
2020/12/07 03:15:47;;;;;;;3.40;3.20;;;3.20;99.90;;;;;;4972801;28;20423;-80
2020/12/07 03:18:16;;;;;;;3.57;3.37;;;3.20;99.90;;;;;;4972868;28;20471;-80
2020/12/07 03:20:51;;;;;;;3.50;3.30;;;3.20;99.90;;;;;;4973636;28;20459;-79
2020/12/07 03:23:17;;;;;;;3.60;3.30;;;3.20;99.90;;;;;;4972942;28;21230;-81
2020/12/07 03:25:44;;;;;;;4.17;3.87;;;3.20;99.90;;;;;;4972975;28;20479;-80
2020/12/07 03:28:11;;;;;;;4.03;3.63;;;3.20;99.90;;;;;;4972662;28;20501;-81
2020/12/07 03:30:39;;;;;;;3.60;3.30;;;3.20;99.90;;;;;;4971097;28;20487;-80
2020/12/07 03:33:05;;;;;;;3.70;3.40;;;3.20;99.90;;;;;;4973515;28;20542;-79
2020/12/07 03:35:35;;;;;;;5.17;4.40;;;3.20;99.90;;;;;;4973520;28;20831;-79
2020/12/07 03:38:03;;;;;;;5.40;4.00;;;3.20;99.90;;;;;;4973883;28;20485;-79
2020/12/07 03:40:32;;;;;;;5.70;4.20;;;3.20;99.90;;;;;;4976520;28;20473;-83
2020/12/07 03:42:59;;;;;;;4.53;4.13;;;3.20;99.90;;;;;;4974904;28;20519;-80
2020/12/07 03:45:26;;;;;;;5.67;4.30;;;3.20;99.90;;;;;;4975391;28;20912;-80
2020/12/07 03:47:54;;;;;;;5.53;4.23;;;3.20;99.90;;;;;;4966923;28;20995;-80
2020/12/07 03:50:23;;;;;;;7.17;4.53;;;3.20;99.90;;;;;;4972077;28;20861;-80
2020/12/07 03:52:50;;;;;;;7.57;5.40;;;3.20;99.90;;;;;;4955538;29;20446;-82
2020/12/07 03:55:21;;;;;;;9.60;6.27;;;3.20;99.90;;;;;;4959978;28;20447;-79
2020/12/07 03:57:48;;;;;;;11.73;6.70;;;3.20;99.90;;;;;;4976945;28;20453;-79
2020/12/07 04:00:14;;;;;;;11.63;6.77;;;3.20;99.90;;;;;;4976043;28;21024;-79
2020/12/07 04:02:41;;;;;;;10.40;6.97;;;3.20;99.90;;;;;;4976190;28;20459;-78
2020/12/07 04:05:17;;;;;;;7.27;5.13;;;3.20;99.90;;;;;;4973393;28;20477;-79
2020/12/07 04:07:45;;;;;;;4.77;4.27;;;3.20;99.90;;;;;;4971322;28;20464;-79
2020/12/07 04:10:13;;;;;;;6.33;5.03;;;3.20;99.90;;;;;;4977949;28;20453;-79
2020/12/07 04:12:39;;;;;;;6.93;6.40;;;3.20;99.90;;;;;;4978545;28;20962;-80
2020/12/07 04:15:05;;;;;;;14.20;13.30;;;3.20;99.90;;;;;;4971272;28;20459;-79
2020/12/07 04:17:31;;;;;;;13.20;12.47;;;3.20;99.90;;;;;;4970417;28;20569;-78
2020/12/07 04:19:58;;;;;;;13.10;12.30;;;3.20;99.90;;;;;;4971126;28;20442;-79
2020/12/07 04:22:25;;;;;;;14.13;13.23;;;3.20;99.90;;;;;;4973537;28;20437;-78
2020/12/07 04:24:51;;;;;;;14.00;13.10;;;3.20;99.90;;;;;;4974895;28;20505;-80
2020/12/07 04:27:17;;;;;;;14.00;13.00;;;3.20;99.90;;;;;;4972906;28;20470;-79
2020/12/07 04:29:43;;;;;;;13.97;13.03;;;3.20;99.90;;;;;;4971128;28;20927;-78
2020/12/07 04:32:10;;;;;;;14.33;13.43;;;3.20;99.90;;;;;;4972468;28;20860;-78
2020/12/07 04:34:36;;;;;;;14.50;13.60;;;3.10;99.90;;;;;;4973464;28;21006;-78
2020/12/07 04:37:03;;;;;;;15.07;14.00;;;3.10;99.90;;;;;;4972632;28;20441;-78
2020/12/07 04:39:29;;;;;;;14.73;13.67;;;3.10;99.90;;;;;;4972755;28;20435;-78
2020/12/07 04:41:56;;;;;;;14.17;13.27;;;3.00;99.90;;;;;;4971595;28;20947;-78
2020/12/07 04:44:22;;;;;;;14.10;13.13;;;3.00;99.90;;;;;;4972831;28;20442;-78
2020/12/07 04:46:49;;;;;;;13.17;12.47;;;2.90;99.90;;;;;;4972393;28;20938;-78
2020/12/07 04:49:16;;;;;;;13.83;12.93;;;2.90;99.90;;;;;;4972052;28;20469;-78
2020/12/07 04:51:43;;;;;;;13.87;12.97;;;3.00;99.90;;;;;;4972662;28;20500;-78
2020/12/07 04:54:13;;;;;;;14.90;13.90;;;2.90;99.90;;;;;;4972713;28;20449;-80
2020/12/07 04:56:40;;;;;;;13.93;13.13;;;2.90;99.90;;;;;;4972832;28;21071;-78
2020/12/07 04:59:08;;;;;;;14.70;13.80;;;2.90;99.90;;;;;;4972653;28;20532;-79
2020/12/07 05:01:34;;;;;;;5.03;4.63;;;2.80;99.90;;;;;;4972516;28;20441;-78
2020/12/07 05:04:01;;;;;;;4.63;4.33;;;2.80;99.90;;;;;;4973554;28;21017;-78
2020/12/07 05:06:29;;;;;;;4.47;4.07;;;2.80;99.90;;;;;;4972111;28;20921;-79
2020/12/07 05:08:56;;;;;;;6.47;5.97;;;2.80;99.90;;;;;;4971535;28;20462;-79
2020/12/07 05:11:24;;;;;;;8.83;8.23;;;2.70;99.90;;;;;;4973205;28;20829;-78
2020/12/07 05:13:53;;;;;;;4.77;4.37;;;2.70;99.90;;;;;;4971992;28;20440;-79
2020/12/07 05:16:20;;;;;;;4.83;4.43;;;2.70;99.90;;;;;;4971538;28;20504;-78
2020/12/07 05:18:46;;;;;;;5.23;4.77;;;2.60;99.90;;;;;;4971969;28;20514;-78
2020/12/07 05:21:16;;;;;;;5.20;4.77;;;2.60;99.90;;;;;;4971672;28;20480;-79
2020/12/07 05:23:45;;;;;;;5.10;4.60;;;2.60;99.90;;;;;;4972724;28;20460;-79
2020/12/07 05:26:11;;;;;;;9.97;9.30;;;2.60;99.90;;;;;;4971198;28;20843;-78
2020/12/07 05:28:43;;;;;;;5.00;4.53;;;2.60;99.90;;;;;;4970507;28;22324;-78
2020/12/07 05:31:15;;;;;;;7.50;6.90;;;2.50;99.90;;;;;;4971769;28;20449;-78
2020/12/07 05:33:41;;;;;;;7.80;7.10;;;2.40;99.90;;;;;;4972466;28;20675;-78
2020/12/07 05:36:07;;;;;;;5.20;4.73;;;2.40;99.90;;;;;;4971559;28;20453;-78
2020/12/07 05:38:35;;;;;;;6.43;5.93;;;2.20;99.90;;;;;;4971313;28;20825;-79
2020/12/07 05:41:03;;;;;;;11.43;10.53;;;2.20;99.90;;;;;;4976323;28;20966;-78
2020/12/07 05:43:30;;;;;;;12.80;12.00;;;2.10;99.90;;;;;;4975248;28;20679;-78
2020/12/07 05:45:59;;;;;;;12.17;11.47;;;2.00;99.90;;;;;;4976509;28;20538;-79
2020/12/07 05:48:30;;;;;;;5.13;4.67;;;2.00;99.90;;;;;;4974465;28;20463;-78
2020/12/07 05:51:00;;;;;;;7.87;7.20;;;1.90;99.90;;;;;;4975115;28;20472;-78
2020/12/07 05:53:27;;;;;;;13.20;12.30;;;1.90;99.90;;;;;;4975495;28;20543;-78
2020/12/07 05:55:55;;;;;;;13.07;12.17;;;1.80;99.90;;;;;;4976422;28;20864;-79
2020/12/07 05:58:22;;;;;;;13.00;12.20;;;1.70;99.90;;;;;;4974653;28;20465;-78
2020/12/07 06:00:54;;;;;;;12.93;12.03;;;1.60;99.90;;;;;;4976396;28;20828;-78
2020/12/07 06:03:21;;;;;;;16.20;15.20;;;1.60;99.90;;;;;;4976605;28;20430;-77
2020/12/07 06:05:48;;;;;;;16.20;15.27;;;1.60;99.90;;;;;;4976224;28;20497;-78
2020/12/07 06:08:18;;;;;;;12.43;11.63;;;1.50;99.90;;;;;;4975510;28;20461;-79
2020/12/07 06:10:48;;;;;;;13.27;12.37;;;1.40;99.90;;;;;;4976092;28;20466;-78
2020/12/07 06:13:18;;;;;;;16.07;15.00;;;1.40;99.90;;;;;;4975103;28;20451;-79
2020/12/07 06:15:45;;;;;;;16.17;15.17;;;1.30;99.90;;;;;;4975087;28;20443;-79
2020/12/07 06:18:30;;;;;;;16.60;15.50;;;1.30;99.90;;;;;;4975571;28;20461;-79
2020/12/07 06:21:03;;;;;;;16.53;15.43;;;1.30;99.90;;;;;;4974787;28;20509;-78
2020/12/07 06:23:35;;;;;;;16.20;15.10;;;1.30;99.90;;;;;;4975110;28;20465;-77
2020/12/07 06:26:03;;;;;;;17.13;15.90;;;1.30;99.90;;;;;;4974451;28;20478;-78
2020/12/07 06:28:34;;;;;;;16.50;15.50;;;1.30;99.90;;;;;;4973781;28;21048;-77
2020/12/07 06:31:04;;;;;;;16.60;15.50;;;1.30;99.90;;;;;;4975810;28;20437;-79
2020/12/07 06:33:38;;;;;;;15.90;14.97;;;1.30;99.90;;;;;;4974460;28;21035;-79
2020/12/07 06:36:04;;;;;;;17.27;15.97;;;1.30;99.90;;;;;;4975589;28;20525;-79
2020/12/07 06:38:40;;;;;;;16.13;15.00;;;1.30;99.90;;;;;;4975123;28;20453;-78
2020/12/07 06:41:07;;;;;;;16.67;15.57;;;1.30;99.90;;;;;;4974226;28;20474;-78
2020/12/07 06:43:33;;;;;;;16.17;15.07;;;1.20;99.90;;;;;;4975371;28;20812;-78
2020/12/07 06:46:00;;;;;;;17.80;16.40;;;1.20;99.90;;;;;;4973678;28;20477;-76
2020/12/07 06:48:27;;;;;;;17.30;15.90;;;1.20;99.90;;;;;;4973174;28;21029;-76
2020/12/07 06:50:56;;;;;;;17.50;16.20;;;1.20;99.90;;;;;;4973246;28;20441;-76
2020/12/07 06:53:41;;;;;;;18.20;16.90;;;1.30;99.90;;;;;;4972434;28;20450;-77
2020/12/07 06:56:09;;;;;;;17.00;15.90;;;1.30;99.90;;;;;;4972509;28;20442;-76
2020/12/07 06:58:38;;;;;;;17.27;16.17;;;1.40;99.90;;;;;;4971928;28;20465;-77
2020/12/07 07:01:08;;;;;;;16.90;15.73;;;1.40;99.90;;;;;;4976103;28;20453;-79
2020/12/07 07:03:35;;;;;;;15.93;14.93;;;1.40;99.90;;;;;;4976277;28;20493;-81
2020/12/07 07:06:09;;;;;;;15.73;14.73;;;1.50;99.90;;;;;;4978935;28;20484;-80
2020/12/07 07:08:37;;;;;;;15.97;14.80;;;1.60;99.90;;;;;;4977425;28;21001;-80
2020/12/07 07:11:05;;;;;;;16.03;14.63;;;1.70;99.90;;;;;;4976555;28;20449;-80
2020/12/07 07:13:32;;;;;;;14.80;13.80;;;1.70;99.90;;;;;;4977651;28;20434;-80
2020/12/07 07:15:58;;;;;;;16.00;14.90;;;1.80;99.90;;;;;;4975729;28;20475;-79
2020/12/07 07:18:25;;;;;;;15.00;13.90;;;1.80;99.90;;;;;;4975268;28;20887;-79
2020/12/07 07:20:51;;;;;;;15.10;14.20;;;1.80;99.90;;;;;;4974595;28;20500;-77
2020/12/07 07:23:18;;;;;;;14.93;13.87;;;1.90;99.90;;;;;;4972145;28;20445;-77
2020/12/07 07:25:53;;;;;;;15.17;14.27;;;1.90;99.90;;;;;;4977057;28;20469;-79
2020/12/07 07:28:19;;;;;;;15.40;14.50;;;1.90;99.90;;;;;;4975521;28;20464;-79
2020/12/07 07:30:45;;;;;;;15.77;14.77;;;1.90;99.90;;;;;;4974519;28;20500;-80
2020/12/07 07:33:12;;;;;;;15.57;14.67;;;1.80;99.90;;;;;;4975329;28;20500;-79
2020/12/07 07:35:38;;;;;;;15.60;14.70;;;1.80;99.90;;;;;;4975427;28;20441;-79
2020/12/07 07:38:05;;;;;;;16.33;15.23;;;1.80;99.90;;;;;;4975046;28;20465;-79
2020/12/07 07:40:32;;;;;;;15.13;14.13;;;1.80;99.90;;;;;;4975999;28;20857;-79
2020/12/07 07:43:02;;;;;;;15.00;14.00;;;1.80;99.90;;;;;;4975351;28;21103;-79
2020/12/07 07:45:32;;;;;;;15.73;14.73;;;1.80;99.90;;;;;;4974622;28;20481;-78
2020/12/07 07:48:04;;;;;;;16.00;15.00;;;1.90;99.90;;;;;;4975001;28;21048;-79
2020/12/07 07:50:58;;;;;;;15.33;14.40;;;1.90;99.90;;;;;;4973906;28;20445;-79
2020/12/07 08:16:20;;;;;;;13.87;12.87;;;3.90;99.90;;;;;;4972530;28;20427;-77
2020/12/07 08:18:47;;;;;;;8.23;7.53;;;4.20;99.90;;;;;;4971678;28;20490;-77
2020/12/07 08:21:25;;;;;;;9.03;8.23;;;4.20;99.90;;;;;;4970886;28;20841;-77
2020/12/07 08:23:54;;;;;;;6.07;5.13;;;4.40;99.90;;;;;;4972260;28;20428;-77
2020/12/07 08:26:20;;;;;;;5.47;4.73;;;4.40;99.90;;;;;;4972525;28;20509;-77
2020/12/07 08:28:49;;;;;;;4.87;4.37;;;4.60;99.90;;;;;;4971535;28;20487;-78
2020/12/07 08:31:17;;;;;;;13.57;12.70;;;4.60;99.90;;;;;;4972486;28;20433;-77
2020/12/07 08:33:55;;;;;;;13.53;12.57;;;4.80;99.90;;;;;;4971271;28;20504;-77
2020/12/07 08:36:21;;;;;;;11.93;11.03;;;4.80;99.90;;;;;;4972208;28;20480;-77
2020/12/07 08:38:48;;;;;;;13.70;12.80;;;5.00;99.90;;;;;;4971505;28;20218;-78
2020/12/07 08:41:16;;;;;;;13.40;12.50;;;5.10;99.90;;;;;;4971878;28;20484;-77
2020/12/07 08:43:43;;;;;;;15.17;14.17;;;5.20;99.90;;;;;;4972268;28;20429;-76
2020/12/07 08:46:13;;;;;;;15.20;14.30;;;5.10;99.90;;;;;;4972206;28;20484;-77
2020/12/07 08:48:40;;;;;;;13.53;12.63;;;5.20;99.90;;;;;;4970030;28;20277;-77
2020/12/07 08:51:07;;;;;;;5.43;4.87;;;5.10;99.90;;;;;;4972005;28;20496;-77
2020/12/07 08:53:33;;;;;;;5.20;4.70;;;5.00;99.90;;;;;;4969152;28;20198;-77
2020/12/07 08:55:59;;;;;;;7.50;6.80;;;5.10;99.90;;;;;;4971693;28;20198;-77
2020/12/07 08:58:26;;;;;;;9.63;8.83;;;5.10;99.90;;;;;;4968239;28;20461;-77
2020/12/07 09:00:52;;;;;;;5.93;5.33;;;5.00;99.90;;;;;;4971594;28;20627;-77
2020/12/07 09:03:19;;;;;;;10.80;10.00;;;4.90;99.90;;;;;;4970761;28;20233;-77
2020/12/07 09:05:45;;;;;;;10.23;9.20;;;4.90;99.90;;;;;;4971792;28;20825;-76
2020/12/07 09:08:12;;;;;;;14.40;13.50;;;4.80;99.90;;;;;;4969634;28;20223;-77
2020/12/07 09:10:38;;;;;;;6.90;6.30;;;4.70;99.90;;;;;;4970632;28;20510;-76
2020/12/07 09:13:05;;;;;;;11.20;10.40;;;4.60;99.90;;;;;;4970914;28;20972;-78
2020/12/07 09:15:32;;;;;;;8.40;7.63;;;4.60;99.90;;;;;;4975904;28;20233;-78
2020/12/07 09:17:58;;;;;;;7.17;6.30;;;4.50;99.90;;;;;;4974756;28;20516;-77
2020/12/07 09:20:25;;;;;;;7.33;5.43;;;4.50;99.90;;;;;;4973331;28;21052;-77
2020/12/07 09:22:51;;;;;;;13.87;12.83;;;4.50;99.90;;;;;;4974276;28;20461;-77
2020/12/07 09:25:18;;;;;;;12.67;11.77;;;4.50;99.90;;;;;;4974124;28;20895;-77
2020/12/07 09:27:44;;;;;;;9.20;8.50;;;4.50;99.90;;;;;;4975407;28;20451;-77
2020/12/07 09:30:10;;;;;;;7.77;6.83;;;4.50;99.90;;;;;;4973949;28;20873;-77
2020/12/07 09:32:37;;;;;;;13.70;12.80;;;4.40;99.90;;;;;;4973870;28;20446;-77
2020/12/07 09:35:06;;;;;;;6.70;6.00;;;4.40;99.90;;;;;;4973351;28;21169;-77
2020/12/07 09:37:33;;;;;;;12.57;11.77;;;4.40;99.90;;;;;;4973571;28;20879;-77
2020/12/07 09:39:59;;;;;;;13.10;12.30;;;4.30;99.90;;;;;;4974415;28;20440;-78
2020/12/07 09:42:25;;;;;;;13.87;12.90;;;4.30;99.90;;;;;;4975176;28;20444;-78
2020/12/07 09:44:52;;;;;;;13.37;12.47;;;4.30;99.90;;;;;;4975279;28;20437;-79
2020/12/07 09:47:18;;;;;;;13.60;12.70;;;4.40;99.90;;;;;;4973677;28;20499;-77
2020/12/07 09:49:44;;;;;;;13.00;12.10;;;4.40;99.90;;;;;;4974632;28;20516;-77
2020/12/07 09:52:10;;;;;;;13.37;12.47;;;4.50;99.90;;;;;;4974619;28;20520;-77
2020/12/07 09:54:38;;;;;;;6.10;5.60;;;4.60;99.90;;;;;;4975067;28;20460;-76
2020/12/07 09:57:05;;;;;;;6.43;5.93;;;4.60;99.90;;;;;;4973548;28;20434;-77
2020/12/07 09:59:34;;;;;;;5.47;4.60;;;4.70;99.90;;;;;;4972487;28;20437;-79
2020/12/07 10:02:01;;;;;;;7.97;7.37;;;4.70;99.90;;;;;;4974840;28;20433;-77
2020/12/07 10:04:27;;;;;;;4.00;3.70;;;4.70;99.90;;;;;;4974971;28;20437;-76
2020/12/07 10:06:54;;;;;;;6.40;5.90;;;4.70;99.90;;;;;;4973289;28;20539;-77
2020/12/07 10:09:20;;;;;;;7.60;6.90;;;4.70;99.90;;;;;;4972988;28;20953;-78
2020/12/07 10:11:48;;;;;;;10.60;9.80;;;4.70;99.90;;;;;;4973474;28;20446;-76
2020/12/07 10:14:14;;;;;;;9.57;8.97;;;4.80;99.90;;;;;;4973424;28;20472;-78
2020/12/07 10:16:43;;;;;;;12.30;11.50;;;4.80;99.90;;;;;;4973435;28;20449;-77
2020/12/07 10:19:09;;;;;;;5.63;5.13;;;4.80;99.90;;;;;;4972237;28;20481;-77
2020/12/07 10:21:36;;;;;;;4.77;3.40;;;4.80;99.90;;;;;;4974583;28;20511;-77
2020/12/07 10:24:02;;;;;;;4.83;4.33;;;4.90;99.90;;;;;;4974737;28;20429;-77
2020/12/07 10:26:29;;;;;;;12.60;11.70;;;5.00;99.90;;;;;;4973431;28;20531;-78
2020/12/07 10:28:57;;;;;;;8.67;8.07;;;5.10;99.90;;;;;;4973579;28;20264;-77
2020/12/07 10:31:23;;;;;;;5.90;5.40;;;5.00;99.90;;;;;;4973016;28;20493;-77
2020/12/07 10:33:52;;;;;;;4.80;4.40;;;5.00;99.90;;;;;;4974249;28;20436;-76
2020/12/07 10:36:18;;;;;;;7.47;6.77;;;5.00;99.90;;;;;;4972981;28;20449;-77
2020/12/07 10:38:45;;;;;;;12.70;11.90;;;5.10;99.90;;;;;;4971888;28;20461;-77
2020/12/07 10:41:13;;;;;;;5.70;5.20;;;5.20;99.90;;;;;;4972774;28;20916;-77
2020/12/07 10:43:40;;;;;;;9.87;9.17;;;5.30;99.90;;;;;;4972485;28;20202;-77
2020/12/07 10:46:07;;;;;;;4.60;4.20;;;5.30;99.90;;;;;;4973772;28;20898;-77
2020/12/07 10:48:34;;;;;;;9.20;8.57;;;5.40;99.90;;;;;;4970142;28;20462;-77
2020/12/07 10:51:00;;;;;;;7.50;6.90;;;5.30;99.90;;;;;;4972613;28;20450;-78
2020/12/07 10:53:27;;;;;;;9.73;9.07;;;5.50;99.90;;;;;;4972349;28;20252;-77
2020/12/07 10:55:53;;;;;;;4.30;3.90;;;5.60;99.90;;;;;;4973488;28;20201;-77
2020/12/07 10:58:19;;;;;;;4.80;4.40;;;5.70;99.90;;;;;;4971827;28;20281;-76
2020/12/07 11:00:46;;;;;;;10.90;10.20;;;5.70;99.90;;;;;;4973558;28;20213;-77
2020/12/07 11:03:13;;;;;;;9.00;8.40;;;5.60;99.90;;;;;;4972072;28;20206;-77
2020/12/07 11:05:41;;;;;;;10.90;10.20;;;5.80;99.90;;;;;;4973305;28;20631;-77
2020/12/07 11:08:13;;;;;;;8.83;8.20;;;5.90;99.90;;;;;;4973299;28;20236;-77
2020/12/07 11:10:40;;;;;;;5.23;4.80;;;5.90;99.90;;;;;;4973351;28;20194;-78
2020/12/07 11:13:16;;;;;;;4.67;4.10;;;5.90;99.90;;;;;;4971616;28;20679;-77
2020/12/07 11:15:43;;;;;;;12.63;11.83;;;5.90;99.90;;;;;;4973478;28;20213;-78
2020/12/07 11:18:09;;;;;;;11.43;10.73;;;6.00;99.90;;;;;;4973102;28;20280;-77
2020/12/07 11:20:36;;;;;;;12.03;11.30;;;6.00;99.90;;;;;;4973637;28;20199;-77
2020/12/07 11:23:03;;;;;;;12.63;11.73;;;6.10;99.90;;;;;;4971573;28;20286;-77
2020/12/07 11:25:29;;;;;;;11.87;11.17;;;6.10;99.90;;;;;;4971718;28;20778;-77
2020/12/07 11:27:55;;;;;;;12.30;11.50;;;5.90;99.90;;;;;;4973030;28;20218;-77
2020/12/07 11:30:21;;;;;;;12.80;12.00;;;5.80;99.90;;;;;;4971245;28;20260;-78
2020/12/07 11:32:48;;;;;;;11.77;11.07;;;5.80;99.90;;;;;;4971823;28;20202;-77
2020/12/07 11:35:14;;;;;;;11.43;10.73;;;5.80;99.90;;;;;;4972476;28;20289;-76
2020/12/07 11:37:41;;;;;;;11.30;10.60;;;5.80;99.90;;;;;;4972756;28;20268;-76
2020/12/07 11:40:13;;;;;;;10.90;10.30;;;5.80;99.90;;;;;;4970934;28;20209;-78
2020/12/07 11:42:45;;;;;;;11.73;10.93;;;5.80;99.90;;;;;;4972719;28;20326;-77
2020/12/07 11:45:11;;;;;;;10.80;10.20;;;5.60;99.90;;;;;;4972497;28;20397;-77
2020/12/07 11:47:37;;;;;;;11.10;10.40;;;5.50;99.90;;;;;;4971782;28;20784;-78
2020/12/07 11:50:04;;;;;;;10.80;10.20;;;5.40;99.90;;;;;;4971973;28;20675;-77
2020/12/07 11:52:31;;;;;;;10.90;10.20;;;5.50;99.90;;;;;;4971307;28;20671;-78
2020/12/07 11:54:58;;;;;;;11.00;10.30;;;5.50;99.90;;;;;;4971138;28;20708;-77
2020/12/07 11:57:24;;;;;;;11.10;10.40;;;5.40;99.90;;;;;;4971076;28;20218;-76
2020/12/07 11:59:50;;;;;;;11.03;10.33;;;5.30;99.90;;;;;;4970851;28;20210;-77
2020/12/07 12:02:16;;;;;;;10.77;10.07;;;5.30;99.90;;;;;;4971539;28;20289;-77
2020/12/07 12:04:43;;;;;;;11.20;10.50;;;5.30;99.90;;;;;;4972309;28;20343;-76
2020/12/07 12:07:09;;;;;;;11.10;10.30;;;5.30;99.90;;;;;;4972121;28;20214;-76
2020/12/07 12:09:37;;;;;;;10.53;9.93;;;5.30;99.90;;;;;;4970627;28;20628;-78
2020/12/07 12:12:04;;;;;;;11.23;10.40;;;5.40;99.90;;;;;;4970775;28;20206;-77
2020/12/07 12:14:31;;;;;;;11.10;10.40;;;5.50;99.90;;;;;;4971291;28;20202;-77
2020/12/07 12:16:57;;;;;;;10.93;10.23;;;5.60;99.90;;;;;;4970289;28;20240;-77
2020/12/07 12:19:24;;;;;;;11.47;10.67;;;5.50;99.90;;;;;;4970663;28;20245;-80
2020/12/07 12:21:50;;;;;;;11.50;10.70;;;5.50;99.90;;;;;;4972403;28;20433;-78
2020/12/07 12:24:17;;;;;;;11.30;10.60;;;5.50;99.90;;;;;;4971033;28;20206;-78
2020/12/07 12:26:44;;;;;;;11.60;10.87;;;5.50;99.90;;;;;;4973161;28;20213;-78
2020/12/07 12:29:12;;;;;;;11.37;10.60;;;5.40;99.90;;;;;;4974265;28;20646;-80
2020/12/07 12:31:38;;;;;;;12.20;11.40;;;5.40;99.90;;;;;;4972896;28;20198;-79
2020/12/07 12:34:04;;;;;;;11.90;11.10;;;5.40;99.90;;;;;;4971660;28;20331;-77
2020/12/07 12:36:31;;;;;;;11.53;10.73;;;5.40;99.90;;;;;;4972873;28;20198;-78
2020/12/07 12:38:58;;;;;;;12.13;11.33;;;5.50;99.90;;;;;;4971555;28;20221;-77
2020/12/07 12:41:24;;;;;;;11.77;10.97;;;5.60;99.90;;;;;;4973066;28;20695;-78
2020/12/07 12:43:51;;;;;;;11.40;10.60;;;5.50;99.90;;;;;;4972674;28;20383;-78
2020/12/07 12:46:18;;;;;;;11.93;11.13;;;5.50;99.90;;;;;;4972076;28;20524;-77
2020/12/07 12:48:45;;;;;;;12.33;11.40;;;5.50;99.90;;;;;;4971006;28;20711;-79
2020/12/07 12:51:11;;;;;;;12.40;11.50;;;5.60;99.90;;;;;;4971752;28;20197;-77
2020/12/07 12:53:38;;;;;;;11.87;11.17;;;5.40;99.90;;;;;;4972298;28;20202;-77
2020/12/07 12:56:05;;;;;;;12.17;11.37;;;5.40;99.90;;;;;;4971156;28;20308;-78
2020/12/07 12:58:32;;;;;;;12.27;11.47;;;5.40;99.90;;;;;;4971392;28;20222;-77
2020/12/07 13:00:58;;;;;;;11.37;10.67;;;5.50;99.90;;;;;;4972492;28;20539;-77
2020/12/07 13:03:25;;;;;;;12.50;11.70;;;5.50;99.90;;;;;;4971265;28;20206;-79
2020/12/07 13:05:52;;;;;;;11.60;10.90;;;5.50;99.90;;;;;;4972595;28;20210;-77
2020/12/07 13:08:19;;;;;;;11.90;11.10;;;5.60;99.90;;;;;;4972315;28;20214;-78
2020/12/07 13:10:47;;;;;;;11.50;10.80;;;5.50;99.90;;;;;;4971437;28;20252;-78
2020/12/07 13:13:13;;;;;;;12.27;11.47;;;5.50;99.90;;;;;;4971233;28;20248;-77